sensor_id;sensor_type;location;lat;lon;timestamp;pressure;altitude;pressure_sealevel;temperature;humidity
7337;BME280;54510;42.016;23.098;2023-04-26T00:01:57;-21516.59;;;13.91;79.64
7337;BME280;54510;42.016;23.098;2023-04-26T00:04:24;-21520.19;;;14.04;79.43
7337;BME280;54510;42.016;23.098;2023-04-26T00:06:49;-21518.66;;;13.98;79.17
7337;BME280;54510;42.016;23.098;2023-04-26T00:09:15;-21511.59;;;13.72;80.11
7337;BME280;54510;42.016;23.098;2023-04-26T00:11:40;-21524.31;;;14.19;79.36
7337;BME280;54510;42.016;23.098;2023-04-26T00:14:05;-21522.94;;;14.14;78.40
7337;BME280;54510;42.016;23.098;2023-04-26T00:16:31;-21515.19;;;13.85;79.08
7337;BME280;54510;42.016;23.098;2023-04-26T00:18:56;-21517.97;;;13.96;80.01
7337;BME280;54510;42.016;23.098;2023-04-26T00:21:21;-21520.88;;;14.06;78.75
7337;BME280;54510;42.016;23.098;2023-04-26T00:23:47;-21518.81;;;13.99;78.97
7337;BME280;54510;42.016;23.098;2023-04-26T00:26:12;-21524.59;;;14.20;78.79
7337;BME280;54510;42.016;23.098;2023-04-26T00:28:37;-21526.81;;;14.28;77.86
7337;BME280;54510;42.016;23.098;2023-04-26T00:31:03;-21514.38;;;13.82;79.04
7337;BME280;54510;42.016;23.098;2023-04-26T00:33:28;-21520.19;;;14.04;79.32
7337;BME280;54510;42.016;23.098;2023-04-26T00:35:54;-21521.16;;;14.07;78.07
7337;BME280;54510;42.016;23.098;2023-04-26T00:38:20;-21523.50;;;14.16;77.82
7337;BME280;54510;42.016;23.098;2023-04-26T00:40:45;-21518.94;;;13.99;77.14
7337;BME280;54510;42.016;23.098;2023-04-26T00:43:10;-21518.25;;;13.97;76.63
7337;BME280;54510;42.016;23.098;2023-04-26T00:45:36;-21508.56;;;13.61;77.20
7337;BME280;54510;42.016;23.098;2023-04-26T00:48:01;-21495.84;;;13.15;79.70
7337;BME280;54510;42.016;23.098;2023-04-26T00:50:27;-21496.53;;;13.17;80.02
7337;BME280;54510;42.016;23.098;2023-04-26T00:52:54;-21490.84;;;12.96;79.86
7337;BME280;54510;42.016;23.098;2023-04-26T00:55:20;-21496.81;;;13.18;78.91
7337;BME280;54510;42.016;23.098;2023-04-26T00:57:46;-21492.38;;;13.02;79.15
7337;BME280;54510;42.016;23.098;2023-04-26T01:00:12;-21476.59;;;12.44;81.10
7337;BME280;54510;42.016;23.098;2023-04-26T01:02:37;-21481.16;;;12.61;81.48
7337;BME280;54510;42.016;23.098;2023-04-26T01:05:04;-21483.25;;;12.69;80.80
7337;BME280;54510;42.016;23.098;2023-04-26T01:07:30;-21485.59;;;12.77;80.58
7337;BME280;54510;42.016;23.098;2023-04-26T01:09:56;-21492.50;;;13.02;79.66
7337;BME280;54510;42.016;23.098;2023-04-26T01:12:22;-21485.72;;;12.78;79.66
7337;BME280;54510;42.016;23.098;2023-04-26T01:14:48;-21483.66;;;12.70;79.83
7337;BME280;54510;42.016;23.098;2023-04-26T01:17:13;-21489.19;;;12.90;79.43
7337;BME280;54510;42.016;23.098;2023-04-26T01:19:48;-21489.75;;;12.92;79.13
7337;BME280;54510;42.016;23.098;2023-04-26T01:22:14;-21500.97;;;13.33;78.03
7337;BME280;54510;42.016;23.098;2023-04-26T01:24:40;-21507.59;;;13.58;77.19
7337;BME280;54510;42.016;23.098;2023-04-26T01:27:06;-21510.63;;;13.69;76.76
7337;BME280;54510;42.016;23.098;2023-04-26T01:29:32;-21507.59;;;13.58;77.76
7337;BME280;54510;42.016;23.098;2023-04-26T01:31:57;-21507.03;;;13.56;78.60
7337;BME280;54510;42.016;23.098;2023-04-26T01:34:22;-21503.03;;;13.41;78.69
7337;BME280;54510;42.016;23.098;2023-04-26T01:36:47;-21500.00;;;13.30;78.72
7337;BME280;54510;42.016;23.098;2023-04-26T01:39:13;-21496.13;;;13.16;78.78
7337;BME280;54510;42.016;23.098;2023-04-26T01:41:38;-21490.16;;;12.94;79.13
7337;BME280;54510;42.016;23.098;2023-04-26T01:44:03;-21486.84;;;12.82;79.63
7337;BME280;54510;42.016;23.098;2023-04-26T01:46:29;-21485.03;;;12.75;79.26
7337;BME280;54510;42.016;23.098;2023-04-26T01:48:54;-21480.31;;;12.58;78.46
7337;BME280;54510;42.016;23.098;2023-04-26T01:51:21;-21486.41;;;12.80;77.76
7337;BME280;54510;42.016;23.098;2023-04-26T01:53:46;-21492.25;;;13.01;76.56
7337;BME280;54510;42.016;23.098;2023-04-26T01:56:12;-21500.97;;;13.33;76.20
7337;BME280;54510;42.016;23.098;2023-04-26T01:58:37;-21506.06;;;13.52;74.83
7337;BME280;54510;42.016;23.098;2023-04-26T02:01:06;-21504.97;;;13.48;75.16
7337;BME280;54510;42.016;23.098;2023-04-26T02:03:31;-21502.63;;;13.39;74.99
7337;BME280;54510;42.016;23.098;2023-04-26T02:05:57;-21493.34;;;13.05;76.66
7337;BME280;54510;42.016;23.098;2023-04-26T02:08:22;-21496.66;;;13.18;76.39
7337;BME280;54510;42.016;23.098;2023-04-26T02:10:47;-21493.06;;;13.04;76.63
7337;BME280;54510;42.016;23.098;2023-04-26T02:13:13;-21481.84;;;12.63;78.22
7337;BME280;54510;42.016;23.098;2023-04-26T02:15:38;-21487.53;;;12.84;77.19
7337;BME280;54510;42.016;23.098;2023-04-26T02:18:04;-21465.66;;;12.04;78.31
7337;BME280;54510;42.016;23.098;2023-04-26T02:20:30;-21466.19;;;12.06;79.66
7337;BME280;54510;42.016;23.098;2023-04-26T02:22:55;-21470.91;;;12.23;79.84
7337;BME280;54510;42.016;23.098;2023-04-26T02:25:20;-21475.47;;;12.40;78.98
7337;BME280;54510;42.016;23.098;2023-04-26T02:27:46;-21474.94;;;12.38;77.04
7337;BME280;54510;42.016;23.098;2023-04-26T02:30:12;-21470.34;;;12.21;77.13
7337;BME280;54510;42.016;23.098;2023-04-26T02:32:37;-21473.69;;;12.34;76.59
7337;BME280;54510;42.016;23.098;2023-04-26T02:35:03;-21471.59;;;12.26;77.97
7337;BME280;54510;42.016;23.098;2023-04-26T02:37:29;-21471.59;;;12.26;77.44
7337;BME280;54510;42.016;23.098;2023-04-26T02:39:54;-21483.09;;;12.68;76.76
7337;BME280;54510;42.016;23.098;2023-04-26T02:42:20;-21482.28;;;12.65;76.67
7337;BME280;54510;42.016;23.098;2023-04-26T02:44:45;-21482.69;;;12.66;76.84
7337;BME280;54510;42.016;23.098;2023-04-26T02:47:10;-21485.72;;;12.78;76.15
7337;BME280;54510;42.016;23.098;2023-04-26T02:49:36;-21479.38;;;12.54;76.52
7337;BME280;54510;42.016;23.098;2023-04-26T02:52:01;-21484.75;;;12.74;76.15
7337;BME280;54510;42.016;23.098;2023-04-26T02:54:26;-21483.38;;;12.69;76.89
7337;BME280;54510;42.016;23.098;2023-04-26T02:56:51;-21484.22;;;12.72;76.53
7337;BME280;54510;42.016;23.098;2023-04-26T02:59:17;-21488.22;;;12.87;75.88
7337;BME280;54510;42.016;23.098;2023-04-26T03:01:42;-21483.09;;;12.68;76.89
7337;BME280;54510;42.016;23.098;2023-04-26T03:04:07;-21479.38;;;12.54;77.08
7337;BME280;54510;42.016;23.098;2023-04-26T03:06:33;-21474.38;;;12.36;77.28
7337;BME280;54510;42.016;23.098;2023-04-26T03:08:58;-21473.69;;;12.34;77.65
7337;BME280;54510;42.016;23.098;2023-04-26T03:11:23;-21472.84;;;12.31;78.39
7337;BME280;54510;42.016;23.098;2023-04-26T03:13:49;-21473.25;;;12.32;77.17
7337;BME280;54510;42.016;23.098;2023-04-26T03:16:14;-21470.50;;;12.22;77.85
7337;BME280;54510;42.016;23.098;2023-04-26T03:18:40;-21475.75;;;12.41;77.05
7337;BME280;54510;42.016;23.098;2023-04-26T03:21:05;-21473.13;;;12.32;77.16
7337;BME280;54510;42.016;23.098;2023-04-26T03:23:31;-21475.91;;;12.42;77.04
7337;BME280;54510;42.016;23.098;2023-04-26T03:25:56;-21474.38;;;12.36;76.99
7337;BME280;54510;42.016;23.098;2023-04-26T03:28:21;-21473.00;;;12.31;77.37
7337;BME280;54510;42.016;23.098;2023-04-26T03:30:46;-21469.81;;;12.19;77.96
7337;BME280;54510;42.016;23.098;2023-04-26T03:33:14;-21474.66;;;12.37;77.46
7337;BME280;54510;42.016;23.098;2023-04-26T03:35:39;-21473.13;;;12.32;77.84
7337;BME280;54510;42.016;23.098;2023-04-26T03:38:04;-21477.84;;;12.49;77.25
7337;BME280;54510;42.016;23.098;2023-04-26T03:40:30;-21476.88;;;12.45;76.85
7337;BME280;54510;42.016;23.098;2023-04-26T03:42:55;-21476.72;;;12.45;77.01
7337;BME280;54510;42.016;23.098;2023-04-26T03:45:21;-21480.31;;;12.58;77.32
7337;BME280;54510;42.016;23.098;2023-04-26T03:47:46;-21481.84;;;12.63;76.15
7337;BME280;54510;42.016;23.098;2023-04-26T03:50:11;-21478.81;;;12.52;76.21
7337;BME280;54510;42.016;23.098;2023-04-26T03:52:37;-21477.56;;;12.48;76.78
7337;BME280;54510;42.016;23.098;2023-04-26T03:55:02;-21476.59;;;12.44;76.79
7337;BME280;54510;42.016;23.098;2023-04-26T03:57:27;-21484.06;;;12.72;76.17
7337;BME280;54510;42.016;23.098;2023-04-26T03:59:53;-21477.56;;;12.48;76.28
7337;BME280;54510;42.016;23.098;2023-04-26T04:02:18;-21477.00;;;12.46;76.53
7337;BME280;54510;42.016;23.098;2023-04-26T04:04:43;-21472.72;;;12.30;76.38
7337;BME280;54510;42.016;23.098;2023-04-26T04:07:09;-21477.84;;;12.49;76.39
7337;BME280;54510;42.016;23.098;2023-04-26T04:09:34;-21480.75;;;12.59;75.69
7337;BME280;54510;42.016;23.098;2023-04-26T04:12:00;-21477.84;;;12.49;74.92
7337;BME280;54510;42.016;23.098;2023-04-26T04:14:25;-21481.03;;;12.60;75.22
7337;BME280;54510;42.016;23.098;2023-04-26T04:16:50;-21480.06;;;12.57;74.32
7337;BME280;54510;42.016;23.098;2023-04-26T04:19:15;-21482.81;;;12.67;74.10
7337;BME280;54510;42.016;23.098;2023-04-26T04:21:41;-21489.19;;;12.90;73.48
7337;BME280;54510;42.016;23.098;2023-04-26T04:24:07;-21482.00;;;12.64;73.89
7337;BME280;54510;42.016;23.098;2023-04-26T04:26:32;-21486.56;;;12.81;73.02
7337;BME280;54510;42.016;23.098;2023-04-26T04:28:58;-21475.63;;;12.41;74.92
7337;BME280;54510;42.016;23.098;2023-04-26T04:31:32;-21481.72;;;12.63;75.72
7337;BME280;54510;42.016;23.098;2023-04-26T04:33:57;-21498.75;;;13.25;73.68
7337;BME280;54510;42.016;23.098;2023-04-26T04:36:23;-21500.81;;;13.33;72.76
7337;BME280;54510;42.016;23.098;2023-04-26T04:38:48;-21504.13;;;13.45;72.32
7337;BME280;54510;42.016;23.098;2023-04-26T04:41:13;-21503.16;;;13.41;72.81
7337;BME280;54510;42.016;23.098;2023-04-26T04:43:39;-21497.09;;;13.19;72.12
7337;BME280;54510;42.016;23.098;2023-04-26T04:46:04;-21494.59;;;13.10;73.12
7337;BME280;54510;42.016;23.098;2023-04-26T04:48:29;-21490.44;;;12.95;73.69
7337;BME280;54510;42.016;23.098;2023-04-26T04:50:55;-21500.97;;;13.33;75.14
7337;BME280;54510;42.016;23.098;2023-04-26T04:53:20;-21501.38;;;13.35;75.97
7337;BME280;54510;42.016;23.098;2023-04-26T04:55:45;-21504.13;;;13.45;76.08
7337;BME280;54510;42.016;23.098;2023-04-26T04:58:10;-21503.03;;;13.41;76.74
7337;BME280;54510;42.016;23.098;2023-04-26T05:00:37;-21494.19;;;13.09;76.40
7337;BME280;54510;42.016;23.098;2023-04-26T05:03:03;-21495.00;;;13.12;76.98
7337;BME280;54510;42.016;23.098;2023-04-26T05:05:29;-21494.72;;;13.11;77.86
7337;BME280;54510;42.016;23.098;2023-04-26T05:07:54;-21489.19;;;12.90;78.76
7337;BME280;54510;42.016;23.098;2023-04-26T05:10:20;-21489.59;;;12.92;79.40
7337;BME280;54510;42.016;23.098;2023-04-26T05:12:45;-21490.84;;;12.96;78.14
7337;BME280;54510;42.016;23.098;2023-04-26T05:15:10;-21497.09;;;13.19;77.97
7337;BME280;54510;42.016;23.098;2023-04-26T05:17:35;-21505.66;;;13.51;76.71
7337;BME280;54510;42.016;23.098;2023-04-26T05:20:01;-21488.91;;;12.89;78.23
7337;BME280;54510;42.016;23.098;2023-04-26T05:22:31;-21477.56;;;12.48;79.47
7337;BME280;54510;42.016;23.098;2023-04-26T05:24:56;-21488.22;;;12.87;78.33
7337;BME280;54510;42.016;23.098;2023-04-26T05:27:22;-21497.22;;;13.20;77.13
7337;BME280;54510;42.016;23.098;2023-04-26T05:29:47;-21503.88;;;13.44;76.55
7337;BME280;54510;42.016;23.098;2023-04-26T05:32:12;-21486.97;;;12.82;78.33
7337;BME280;54510;42.016;23.098;2023-04-26T05:34:37;-21496.94;;;13.19;78.70
7337;BME280;54510;42.016;23.098;2023-04-26T05:37:03;-21494.03;;;13.08;77.54
7337;BME280;54510;42.016;23.098;2023-04-26T05:39:28;-21500.53;;;13.32;77.06
7337;BME280;54510;42.016;23.098;2023-04-26T05:41:54;-21499.16;;;13.27;77.28
7337;BME280;54510;42.016;23.098;2023-04-26T05:44:19;-21507.31;;;13.57;75.96
7337;BME280;54510;42.016;23.098;2023-04-26T05:46:45;-21513.00;;;13.77;75.66
7337;BME280;54510;42.016;23.098;2023-04-26T05:49:10;-21521.84;;;14.10;74.42
7337;BME280;54510;42.016;23.098;2023-04-26T05:51:35;-21525.72;;;14.24;74.33
7337;BME280;54510;42.016;23.098;2023-04-26T05:54:00;-21530.41;;;14.41;73.61
7337;BME280;54510;42.016;23.098;2023-04-26T05:56:26;-21525.56;;;14.23;72.83
7337;BME280;54510;42.016;23.098;2023-04-26T05:58:51;-21513.25;;;13.78;74.01
7337;BME280;54510;42.016;23.098;2023-04-26T06:01:17;-21518.81;;;13.99;73.77
7337;BME280;54510;42.016;23.098;2023-04-26T06:03:45;-21523.50;;;14.16;73.74
7337;BME280;54510;42.016;23.098;2023-04-26T06:06:11;-21508.16;;;13.60;74.85
7337;BME280;54510;42.016;23.098;2023-04-26T06:08:36;-21503.03;;;13.41;76.57
7337;BME280;54510;42.016;23.098;2023-04-26T06:11:02;-21503.72;;;13.43;76.22
7337;BME280;54510;42.016;23.098;2023-04-26T06:13:27;-21493.75;;;13.07;78.04
7337;BME280;54510;42.016;23.098;2023-04-26T06:15:53;-21505.53;;;13.50;76.69
7337;BME280;54510;42.016;23.098;2023-04-26T06:18:18;-21517.00;;;13.92;75.52
7337;BME280;54510;42.016;23.098;2023-04-26T06:20:45;-21510.09;;;13.67;75.13
7337;BME280;54510;42.016;23.098;2023-04-26T06:23:10;-21520.03;;;14.03;74.04
7337;BME280;54510;42.016;23.098;2023-04-26T06:25:36;-21522.81;;;14.13;73.32
7337;BME280;54510;42.016;23.098;2023-04-26T06:28:01;-21515.34;;;13.86;74.84
7337;BME280;54510;42.016;23.098;2023-04-26T06:30:27;-21521.16;;;14.07;74.45
7337;BME280;54510;42.016;23.098;2023-04-26T06:32:53;-21525.97;;;14.25;73.07
7337;BME280;54510;42.016;23.098;2023-04-26T06:35:18;-21522.81;;;14.13;73.81
7337;BME280;54510;42.016;23.098;2023-04-26T06:37:43;-21537.03;;;14.66;73.45
7337;BME280;54510;42.016;23.098;2023-04-26T06:40:09;-21545.88;;;14.98;72.69
7337;BME280;54510;42.016;23.098;2023-04-26T06:42:35;-21542.84;;;14.87;71.06
7337;BME280;54510;42.016;23.098;2023-04-26T06:45:00;-21525.84;;;14.24;73.27
7337;BME280;54510;42.016;23.098;2023-04-26T06:47:25;-21535.09;;;14.58;73.01
7337;BME280;54510;42.016;23.098;2023-04-26T06:49:51;-21543.41;;;14.89;71.85
7337;BME280;54510;42.016;23.098;2023-04-26T06:52:16;-21539.81;;;14.76;71.69
7337;BME280;54510;42.016;23.098;2023-04-26T06:54:41;-21543.81;;;14.90;71.93
7337;BME280;54510;42.016;23.098;2023-04-26T06:57:07;-21544.91;;;14.94;72.20
7337;BME280;54510;42.016;23.098;2023-04-26T06:59:32;-21545.59;;;14.97;72.60
7337;BME280;54510;42.016;23.098;2023-04-26T07:01:57;-21546.28;;;14.99;72.75
7337;BME280;54510;42.016;23.098;2023-04-26T07:04:22;-21545.31;;;14.96;72.97
7337;BME280;54510;42.016;23.098;2023-04-26T07:06:48;-21545.59;;;14.97;73.23
7337;BME280;54510;42.016;23.098;2023-04-26T07:09:14;-21546.72;;;15.01;73.11
7337;BME280;54510;42.016;23.098;2023-04-26T07:11:39;-21546.84;;;15.01;73.75
7337;BME280;54510;42.016;23.098;2023-04-26T07:14:04;-21549.88;;;15.13;73.40
7337;BME280;54510;42.016;23.098;2023-04-26T07:16:30;-21551.25;;;15.18;73.44
7337;BME280;54510;42.016;23.098;2023-04-26T07:18:55;-21549.47;;;15.11;73.05
7337;BME280;54510;42.016;23.098;2023-04-26T07:21:22;-21550.16;;;15.14;73.32
7337;BME280;54510;42.016;23.098;2023-04-26T07:23:48;-21554.16;;;15.28;72.80
7337;BME280;54510;42.016;23.098;2023-04-26T07:26:13;-21553.88;;;15.27;72.49
7337;BME280;54510;42.016;23.098;2023-04-26T07:28:38;-21557.34;;;15.40;72.89
7337;BME280;54510;42.016;23.098;2023-04-26T07:31:04;-21561.06;;;15.54;72.98
7337;BME280;54510;42.016;23.098;2023-04-26T07:33:29;-21561.06;;;15.54;72.76
7337;BME280;54510;42.016;23.098;2023-04-26T07:35:55;-21564.09;;;15.65;71.92
7337;BME280;54510;42.016;23.098;2023-04-26T07:38:21;-21559.41;;;15.48;71.62
7337;BME280;54510;42.016;23.098;2023-04-26T07:40:46;-21562.16;;;15.58;71.33
7337;BME280;54510;42.016;23.098;2023-04-26T07:43:11;-21560.38;;;15.51;71.23
7337;BME280;54510;42.016;23.098;2023-04-26T07:45:37;-21560.22;;;15.51;71.38
7337;BME280;54510;42.016;23.098;2023-04-26T07:48:02;-21562.72;;;15.60;72.51
7337;BME280;54510;42.016;23.098;2023-04-26T07:50:28;-21565.75;;;15.71;71.80
7337;BME280;54510;42.016;23.098;2023-04-26T07:52:53;-21567.53;;;15.77;72.36
7337;BME280;54510;42.016;23.098;2023-04-26T07:55:18;-21567.28;;;15.76;72.17
7337;BME280;54510;42.016;23.098;2023-04-26T07:57:44;-21564.66;;;15.67;72.47
7337;BME280;54510;42.016;23.098;2023-04-26T08:00:09;-21564.66;;;15.67;72.37
7337;BME280;54510;42.016;23.098;2023-04-26T08:02:34;-21566.03;;;15.72;72.16
7337;BME280;54510;42.016;23.098;2023-04-26T08:05:00;-21559.28;;;15.47;72.09
7337;BME280;54510;42.016;23.098;2023-04-26T08:07:25;-21555.97;;;15.35;73.91
7337;BME280;54510;42.016;23.098;2023-04-26T08:09:50;-21554.16;;;15.28;74.44
7337;BME280;54510;42.016;23.098;2023-04-26T08:12:16;-21541.88;;;14.83;77.20
7337;BME280;54510;42.016;23.098;2023-04-26T08:14:41;-21541.19;;;14.81;76.24
7337;BME280;54510;42.016;23.098;2023-04-26T08:17:07;-21551.69;;;15.19;75.08
7337;BME280;54510;42.016;23.098;2023-04-26T08:19:33;-21533.19;;;14.51;78.17
7337;BME280;54510;42.016;23.098;2023-04-26T08:21:59;-21554.72;;;15.30;76.05
7337;BME280;54510;42.016;23.098;2023-04-26T08:24:24;-21561.34;;;15.55;74.53
7337;BME280;54510;42.016;23.098;2023-04-26T08:26:49;-21547.81;;;15.05;74.52
7337;BME280;54510;42.016;23.098;2023-04-26T08:29:14;-21557.75;;;15.41;73.29
7337;BME280;54510;42.016;23.098;2023-04-26T08:31:40;-21535.09;;;14.58;74.07
7337;BME280;54510;42.016;23.098;2023-04-26T08:34:06;-21549.88;;;15.13;72.45
7337;BME280;54510;42.016;23.098;2023-04-26T08:36:36;-21559.41;;;15.48;69.44
7337;BME280;54510;42.016;23.098;2023-04-26T08:39:01;-21570.72;;;15.89;68.98
7337;BME280;54510;42.016;23.098;2023-04-26T08:41:27;-21553.59;;;15.26;71.08
7337;BME280;54510;42.016;23.098;2023-04-26T08:43:53;-21539.81;;;14.76;70.48
7337;BME280;54510;42.016;23.098;2023-04-26T08:46:20;-21557.34;;;15.40;69.09
7337;BME280;54510;42.016;23.098;2023-04-26T08:48:50;-21543.81;;;14.90;69.69
7337;BME280;54510;42.016;23.098;2023-04-26T08:51:18;-21551.41;;;15.18;71.23
7337;BME280;54510;42.016;23.098;2023-04-26T08:53:45;-21562.03;;;15.57;67.09
7337;BME280;54510;42.016;23.098;2023-04-26T08:56:11;-21551.13;;;15.17;69.53
7337;BME280;54510;42.016;23.098;2023-04-26T08:58:37;-21560.94;;;15.53;67.37
7337;BME280;54510;42.016;23.098;2023-04-26T09:01:02;-21562.03;;;15.57;66.52
7337;BME280;54510;42.016;23.098;2023-04-26T09:03:29;-21567.81;;;15.78;67.03
7337;BME280;54510;42.016;23.098;2023-04-26T09:05:55;-21553.47;;;15.26;65.39
7337;BME280;54510;42.016;23.098;2023-04-26T09:08:20;-21547.53;;;15.04;67.30
7337;BME280;54510;42.016;23.098;2023-04-26T09:10:46;-21555.81;;;15.34;65.84
7337;BME280;54510;42.016;23.098;2023-04-26T09:13:11;-21571.81;;;15.93;64.44
7337;BME280;54510;42.016;23.098;2023-04-26T09:15:37;-21564.50;;;15.66;64.15
7337;BME280;54510;42.016;23.098;2023-04-26T09:18:14;-21576.09;;;16.09;61.42
7337;BME280;54510;42.016;23.098;2023-04-26T09:20:40;-21581.75;;;16.30;61.46
7337;BME280;54510;42.016;23.098;2023-04-26T09:23:06;-21564.38;;;15.66;61.85
7337;BME280;54510;42.016;23.098;2023-04-26T09:25:32;-21558.56;;;15.45;63.66
7337;BME280;54510;42.016;23.098;2023-04-26T09:27:58;-21569.19;;;15.84;63.17
7337;BME280;54510;42.016;23.098;2023-04-26T09:30:24;-21553.59;;;15.26;65.49
7337;BME280;54510;42.016;23.098;2023-04-26T09:32:53;-21573.88;;;16.01;62.31
7337;BME280;54510;42.016;23.098;2023-04-26T09:37:55;-21607.38;;;17.24;59.24
7337;BME280;54510;42.016;23.098;2023-04-26T09:40:21;-21609.16;;;17.30;59.95
7337;BME280;54510;42.016;23.098;2023-04-26T09:42:46;-21602.97;;;17.08;58.44
7337;BME280;54510;42.016;23.098;2023-04-26T09:45:11;-21605.84;;;17.18;57.87
7337;BME280;54510;42.016;23.098;2023-04-26T09:47:37;-21608.47;;;17.28;57.36
7337;BME280;54510;42.016;23.098;2023-04-26T09:50:02;-21611.91;;;17.41;57.92
7337;BME280;54510;42.016;23.098;2023-04-26T09:52:28;-21599.38;;;16.94;58.79
7337;BME280;54510;42.016;23.098;2023-04-26T09:54:54;-21599.81;;;16.96;57.61
7337;BME280;54510;42.016;23.098;2023-04-26T09:57:20;-21594.72;;;16.77;60.26
7337;BME280;54510;42.016;23.098;2023-04-26T09:59:49;-21608.59;;;17.28;58.20
7337;BME280;54510;42.016;23.098;2023-04-26T10:02:25;-21623.63;;;17.84;57.56
7337;BME280;54510;42.016;23.098;2023-04-26T10:04:52;-21611.78;;;17.40;58.88
7337;BME280;54510;42.016;23.098;2023-04-26T10:07:18;-21612.47;;;17.43;57.68
7337;BME280;54510;42.016;23.098;2023-04-26T10:09:44;-21602.16;;;17.05;58.09
7337;BME280;54510;42.016;23.098;2023-04-26T10:12:11;-21598.69;;;16.92;57.72
7337;BME280;54510;42.016;23.098;2023-04-26T10:14:36;-21599.38;;;16.94;59.39
7337;BME280;54510;42.016;23.098;2023-04-26T10:17:02;-21606.69;;;17.21;58.70
7337;BME280;54510;42.016;23.098;2023-04-26T10:19:28;-21603.78;;;17.11;57.78
7337;BME280;54510;42.016;23.098;2023-04-26T10:21:53;-21600.22;;;16.97;57.58
7337;BME280;54510;42.016;23.098;2023-04-26T10:24:22;-21588.78;;;16.55;58.11
7337;BME280;54510;42.016;23.098;2023-04-26T10:26:49;-21592.63;;;16.70;57.86
7337;BME280;54510;42.016;23.098;2023-04-26T10:29:15;-21576.66;;;16.11;59.04
7337;BME280;54510;42.016;23.098;2023-04-26T10:34:25;-21575.41;;;16.06;57.04
7337;BME280;54510;42.016;23.098;2023-04-26T10:39:32;-21580.91;;;16.27;57.32
7337;BME280;54510;42.016;23.098;2023-04-26T10:44:47;-21571.81;;;15.93;58.79
7337;BME280;54510;42.016;23.098;2023-04-26T10:47:34;-21584.22;;;16.39;57.24
7337;BME280;54510;42.016;23.098;2023-04-26T10:50:08;-21586.44;;;16.47;55.35
7337;BME280;54510;42.016;23.098;2023-04-26T10:52:34;-21596.22;;;16.83;55.74
7337;BME280;54510;42.016;23.098;2023-04-26T10:55:00;-21606.28;;;17.20;55.38
7337;BME280;54510;42.016;23.098;2023-04-26T10:57:45;-21603.53;;;17.10;54.21
7337;BME280;54510;42.016;23.098;2023-04-26T11:00:17;-21612.31;;;17.42;53.64
7337;BME280;54510;42.016;23.098;2023-04-26T11:02:57;-21619.91;;;17.70;53.42
7337;BME280;54510;42.016;23.098;2023-04-26T11:08:13;-21613.16;;;17.45;53.48
7337;BME280;54510;42.016;23.098;2023-04-26T11:10:39;-21590.28;;;16.61;55.74
7337;BME280;54510;42.016;23.098;2023-04-26T11:13:05;-21596.91;;;16.85;55.43
7337;BME280;54510;42.016;23.098;2023-04-26T11:15:30;-21589.47;;;16.58;55.74
7337;BME280;54510;42.016;23.098;2023-04-26T11:17:56;-21586.44;;;16.47;55.42
7337;BME280;54510;42.016;23.098;2023-04-26T11:20:21;-21591.13;;;16.64;55.44
7337;BME280;54510;42.016;23.098;2023-04-26T11:22:47;-21599.81;;;16.96;56.06
7337;BME280;54510;42.016;23.098;2023-04-26T11:25:12;-21587.53;;;16.51;55.79
7337;BME280;54510;42.016;23.098;2023-04-26T11:27:37;-21581.47;;;16.29;57.27
7337;BME280;54510;42.016;23.098;2023-04-26T11:30:03;-21594.56;;;16.77;56.46
7337;BME280;54510;42.016;23.098;2023-04-26T11:32:29;-21602.28;;;17.05;53.83
7337;BME280;54510;42.016;23.098;2023-04-26T11:34:54;-21593.75;;;16.74;54.66
7337;BME280;54510;42.016;23.098;2023-04-26T11:37:19;-21598.56;;;16.91;54.83
7337;BME280;54510;42.016;23.098;2023-04-26T11:39:44;-21610.69;;;17.36;53.79
7337;BME280;54510;42.016;23.098;2023-04-26T11:42:10;-21604.22;;;17.12;54.14
7337;BME280;54510;42.016;23.098;2023-04-26T11:44:36;-21599.09;;;16.93;54.74
7337;BME280;54510;42.016;23.098;2023-04-26T11:47:02;-21595.66;;;16.81;54.46
7337;BME280;54510;42.016;23.098;2023-04-26T11:49:28;-21581.34;;;16.28;55.14
7337;BME280;54510;42.016;23.098;2023-04-26T11:51:53;-21581.75;;;16.30;55.23
7337;BME280;54510;42.016;23.098;2023-04-26T11:54:25;-21590.28;;;16.61;55.05
7337;BME280;54510;42.016;23.098;2023-04-26T11:56:51;-21588.38;;;16.54;54.34
7337;BME280;54510;42.016;23.098;2023-04-26T11:59:22;-21589.59;;;16.58;54.45
7337;BME280;54510;42.016;23.098;2023-04-26T12:01:49;-21601.31;;;17.02;53.40
7337;BME280;54510;42.016;23.098;2023-04-26T12:04:15;-21606.81;;;17.22;52.47
7337;BME280;54510;42.016;23.098;2023-04-26T12:06:41;-21599.81;;;16.96;52.35
7337;BME280;54510;42.016;23.098;2023-04-26T12:09:07;-21593.47;;;16.73;53.46
7337;BME280;54510;42.016;23.098;2023-04-26T12:11:38;-21595.13;;;16.79;52.39
7337;BME280;54510;42.016;23.098;2023-04-26T12:14:03;-21582.56;;;16.33;52.74
7337;BME280;54510;42.016;23.098;2023-04-26T12:16:29;-21581.47;;;16.29;53.32
7337;BME280;54510;42.016;23.098;2023-04-26T12:18:55;-21596.50;;;16.84;52.71
7337;BME280;54510;42.016;23.098;2023-04-26T12:21:23;-21584.66;;;16.40;54.82
7337;BME280;54510;42.016;23.098;2023-04-26T12:23:49;-21588.78;;;16.55;52.81
7337;BME280;54510;42.016;23.098;2023-04-26T12:26:15;-21600.22;;;16.97;51.45
7337;BME280;54510;42.016;23.098;2023-04-26T12:28:40;-21585.47;;;16.43;49.33
7337;BME280;54510;42.016;23.098;2023-04-26T12:31:05;-21589.75;;;16.59;48.68
7337;BME280;54510;42.016;23.098;2023-04-26T12:33:31;-21585.88;;;16.45;50.36
7337;BME280;54510;42.016;23.098;2023-04-26T12:35:57;-21589.06;;;16.56;51.81
7337;BME280;54510;42.016;23.098;2023-04-26T12:38:24;-21581.19;;;16.28;50.38
7337;BME280;54510;42.016;23.098;2023-04-26T12:40:49;-21587.41;;;16.50;52.16
7337;BME280;54510;42.016;23.098;2023-04-26T12:43:15;-21586.44;;;16.47;50.24
7337;BME280;54510;42.016;23.098;2023-04-26T12:45:40;-21579.28;;;16.20;49.28
7337;BME280;54510;42.016;23.098;2023-04-26T12:48:06;-21580.66;;;16.26;47.06
7337;BME280;54510;42.016;23.098;2023-04-26T12:50:31;-21587.53;;;16.51;47.83
7337;BME280;54510;42.016;23.098;2023-04-26T12:52:56;-21596.91;;;16.85;49.93
7337;BME280;54510;42.016;23.098;2023-04-26T12:55:21;-21609.84;;;17.33;47.72
7337;BME280;54510;42.016;23.098;2023-04-26T12:57:47;-21594.97;;;16.78;48.96